createdAt,value
2023-05-03T00:01:24.787Z,2.33
2023-05-03T00:03:52.901Z,2.30
2023-05-03T00:06:19.918Z,2.10
2023-05-03T00:08:51.477Z,2.10
2023-05-03T00:11:21.235Z,2.40
2023-05-03T00:13:50.932Z,2.27
2023-05-03T00:16:19.953Z,3.07
2023-05-03T00:18:48.486Z,2.27
2023-05-03T00:21:16.373Z,2.17
2023-05-03T00:23:43.142Z,2.20
2023-05-03T00:26:09.957Z,2.10
2023-05-03T00:28:36.692Z,2.17
2023-05-03T00:31:10.116Z,2.60
2023-05-03T00:33:40.009Z,2.30
2023-05-03T00:36:10.625Z,2.23
2023-05-03T00:38:37.760Z,1.90
2023-05-03T00:41:09.271Z,2.47
2023-05-03T00:43:36.924Z,2.10
2023-05-03T00:46:15.153Z,2.33
2023-05-03T00:48:48.484Z,2.17
2023-05-03T00:51:15.719Z,2.40
2023-05-03T00:53:45.556Z,2.33
2023-05-03T00:56:12.390Z,2.47
2023-05-03T00:58:41.412Z,2.50
2023-05-03T01:01:08.892Z,2.50
2023-05-03T01:03:41.827Z,2.33
2023-05-03T01:06:17.061Z,2.47
2023-05-03T01:09:00.745Z,2.30
2023-05-03T01:11:55.871Z,2.20
2023-05-03T01:14:51.025Z,2.03
2023-05-03T01:17:17.775Z,2.63
2023-05-03T01:19:45.793Z,2.27
2023-05-03T01:22:22.587Z,2.53
2023-05-03T01:24:52.062Z,2.17
2023-05-03T01:27:19.389Z,2.10
2023-05-03T01:29:46.489Z,2.60
2023-05-03T01:32:18.409Z,2.60
2023-05-03T01:34:51.589Z,2.20
2023-05-03T01:37:18.461Z,2.20
2023-05-03T01:39:50.717Z,2.00
2023-05-03T01:42:19.646Z,2.27
2023-05-03T01:44:46.430Z,2.23
2023-05-03T01:47:15.178Z,2.47
2023-05-03T01:49:42.148Z,2.47
2023-05-03T01:52:11.260Z,2.53
2023-05-03T01:54:40.266Z,1.90
2023-05-03T01:57:07.087Z,2.73
2023-05-03T01:59:33.868Z,2.10
2023-05-03T02:02:00.729Z,2.30
2023-05-03T02:04:27.564Z,2.10
2023-05-03T02:06:54.358Z,2.30
2023-05-03T02:09:21.183Z,2.40
2023-05-03T02:11:50.368Z,2.10
2023-05-03T02:14:21.591Z,1.70
2023-05-03T02:16:48.639Z,2.63
2023-05-03T02:19:19.800Z,2.00
2023-05-03T02:21:46.566Z,1.90
2023-05-03T02:24:13.372Z,2.50
2023-05-03T02:26:40.136Z,2.27
2023-05-03T02:29:07.454Z,2.00
2023-05-03T02:31:34.326Z,2.17
2023-05-03T02:34:01.077Z,2.10
2023-05-03T02:36:29.929Z,2.00
2023-05-03T02:38:58.914Z,2.20
2023-05-03T02:41:25.913Z,2.17
2023-05-03T02:43:55.142Z,2.00
2023-05-03T02:46:21.978Z,2.40
2023-05-03T02:48:48.838Z,2.57
2023-05-03T02:51:18.175Z,2.33
2023-05-03T02:53:47.166Z,3.03
2023-05-03T02:56:13.893Z,2.83
2023-05-03T02:58:40.905Z,2.67
2023-05-03T03:01:07.745Z,2.53
2023-05-03T03:03:34.667Z,2.83
2023-05-03T03:06:01.533Z,3.13
2023-05-03T03:08:30.841Z,2.90
2023-05-03T03:10:57.564Z,3.07
2023-05-03T03:13:24.450Z,2.97
2023-05-03T03:15:53.473Z,3.10
2023-05-03T03:18:20.371Z,3.00
2023-05-03T03:20:49.386Z,3.10
2023-05-03T03:23:18.345Z,2.97
2023-05-03T03:25:45.117Z,2.90
2023-05-03T03:28:11.872Z,2.30
2023-05-03T03:30:43.198Z,2.40
2023-05-03T03:33:12.219Z,2.63
2023-05-03T03:35:39.750Z,2.97
2023-05-03T03:38:06.696Z,2.80
2023-05-03T03:40:33.437Z,2.63
2023-05-03T03:43:02.352Z,2.80
2023-05-03T03:45:29.120Z,3.27
2023-05-03T03:47:58.186Z,3.20
2023-05-03T03:50:25.899Z,2.90
2023-05-03T03:52:52.673Z,3.03
2023-05-03T03:55:19.522Z,3.43
2023-05-03T03:57:46.406Z,2.87
2023-05-03T04:00:16.806Z,3.23
2023-05-03T04:02:43.614Z,2.57
2023-05-03T04:05:10.458Z,2.40
2023-05-03T04:07:37.228Z,2.30
2023-05-03T04:10:04.390Z,2.43
2023-05-03T04:12:31.461Z,2.63
2023-05-03T04:14:58.253Z,2.40
2023-05-03T04:17:25.332Z,2.57
2023-05-03T04:19:57.010Z,3.40
2023-05-03T04:22:23.822Z,2.40
2023-05-03T04:24:50.686Z,2.50
2023-05-03T04:27:18.260Z,2.60
2023-05-03T04:29:49.151Z,2.40
2023-05-03T04:32:16.947Z,2.60
2023-05-03T04:34:43.717Z,2.30
2023-05-03T04:37:10.433Z,2.40
2023-05-03T04:39:39.312Z,2.40
2023-05-03T04:42:06.149Z,2.73
2023-05-03T04:44:35.159Z,2.60
2023-05-03T04:47:02.733Z,2.70
2023-05-03T04:49:29.541Z,2.43
2023-05-03T04:51:56.554Z,2.50
2023-05-03T04:54:23.410Z,2.60
2023-05-03T04:56:50.136Z,2.63
2023-05-03T04:59:21.330Z,2.50
2023-05-03T05:01:48.550Z,2.40
2023-05-03T05:04:15.322Z,2.37
2023-05-03T05:06:42.151Z,2.63
2023-05-03T05:09:24.955Z,2.37
2023-05-03T05:11:53.192Z,2.47
2023-05-03T05:14:21.447Z,2.73
2023-05-03T05:16:48.300Z,2.40
2023-05-03T05:19:15.226Z,2.40
2023-05-03T05:21:44.223Z,2.30
2023-05-03T05:24:11.037Z,2.50
2023-05-03T05:26:37.796Z,2.53
2023-05-03T05:29:04.630Z,2.57
2023-05-03T05:31:32.037Z,2.67
2023-05-03T05:33:58.908Z,2.83
2023-05-03T05:36:25.902Z,3.00
2023-05-03T05:38:52.692Z,3.00
2023-05-03T05:41:19.498Z,3.17
2023-05-03T05:43:46.281Z,2.47
2023-05-03T05:46:13.082Z,2.87
2023-05-03T05:48:43.462Z,2.67
2023-05-03T05:51:10.196Z,2.70
2023-05-03T05:53:37.230Z,2.20
2023-05-03T05:56:04.164Z,2.40
2023-05-03T05:58:30.919Z,2.57
2023-05-03T06:01:01.463Z,2.50
2023-05-03T06:03:31.820Z,2.50
2023-05-03T06:05:58.633Z,2.47
2023-05-03T06:08:27.607Z,2.13
2023-05-03T06:10:56.814Z,1.73
2023-05-03T06:13:23.673Z,2.23
2023-05-03T06:15:50.580Z,2.00
2023-05-03T06:18:17.390Z,1.70
2023-05-03T06:20:46.283Z,2.03
2023-05-03T06:23:13.058Z,1.43
2023-05-03T06:25:39.896Z,1.97
2023-05-03T06:28:06.628Z,1.63
2023-05-03T06:30:33.526Z,1.43
2023-05-03T06:33:00.325Z,1.50
2023-05-03T06:35:27.342Z,1.70
2023-05-03T06:37:54.109Z,1.67
2023-05-03T06:40:22.795Z,1.50
2023-05-03T06:42:49.838Z,1.63
2023-05-03T06:45:16.727Z,1.50
2023-05-03T06:47:43.551Z,1.60
2023-05-03T06:50:10.934Z,1.67
2023-05-03T06:52:37.814Z,1.73
2023-05-03T06:55:07.324Z,1.60
2023-05-03T06:57:34.071Z,1.60
2023-05-03T07:00:01.013Z,1.80
2023-05-03T07:02:30.153Z,1.83
2023-05-03T07:04:56.950Z,1.97
2023-05-03T07:07:23.778Z,1.90
2023-05-03T07:09:50.728Z,1.73
2023-05-03T07:12:19.664Z,1.80
2023-05-03T07:14:48.940Z,2.00
2023-05-03T07:17:17.956Z,1.63
2023-05-03T07:19:44.902Z,1.43
2023-05-03T07:22:12.331Z,1.47
2023-05-03T07:24:39.076Z,1.60
2023-05-03T07:27:05.859Z,1.83
2023-05-03T07:29:35.116Z,1.93
2023-05-03T07:32:01.847Z,1.60
2023-05-03T07:34:33.736Z,1.50
2023-05-03T07:37:00.610Z,1.70
2023-05-03T07:39:32.292Z,1.47
2023-05-03T07:41:59.064Z,1.60
2023-05-03T07:44:25.900Z,2.00
2023-05-03T07:46:55.040Z,1.50
2023-05-03T07:49:22.133Z,1.60
2023-05-03T07:51:48.872Z,1.90
2023-05-03T07:54:15.687Z,1.73
2023-05-03T07:56:42.466Z,1.80
2023-05-03T07:59:10.578Z,1.57
2023-05-03T08:01:38.176Z,1.70
2023-05-03T08:04:08.534Z,1.63
2023-05-03T08:06:38.844Z,1.80
2023-05-03T08:09:05.811Z,1.77
2023-05-03T08:11:32.635Z,2.47
2023-05-03T08:13:59.459Z,1.80
2023-05-03T08:16:26.395Z,2.10
2023-05-03T08:18:53.251Z,2.07
2023-05-03T08:21:24.872Z,2.97
2023-05-03T08:23:54.693Z,2.40
2023-05-03T08:26:22.207Z,1.97
2023-05-03T08:28:49.069Z,1.80
2023-05-03T08:31:16.749Z,2.20
2023-05-03T08:33:43.924Z,2.10
2023-05-03T08:36:10.807Z,2.40
2023-05-03T08:38:41.261Z,1.63
2023-05-03T08:41:19.640Z,2.20
2023-05-03T08:43:46.778Z,1.80
2023-05-03T08:46:13.907Z,1.90
2023-05-03T08:48:40.790Z,2.00
2023-05-03T08:51:08.511Z,2.13
2023-05-03T08:53:37.924Z,2.03
2023-05-03T08:56:12.545Z,2.00
2023-05-03T08:58:41.603Z,2.37
2023-05-03T09:01:11.549Z,2.07
2023-05-03T09:03:38.648Z,1.80
2023-05-03T09:06:20.213Z,1.93
2023-05-03T09:08:47.072Z,2.23
2023-05-03T09:11:30.669Z,2.30
2023-05-03T09:14:17.265Z,2.30
2023-05-03T09:16:45.138Z,3.20
2023-05-03T09:19:12.789Z,2.23
2023-05-03T09:21:40.467Z,1.87
2023-05-03T09:24:14.451Z,2.20
2023-05-03T09:26:42.252Z,2.30
2023-05-03T09:29:09.273Z,2.83
2023-05-03T09:31:36.594Z,2.90
2023-05-03T09:34:21.042Z,2.60
2023-05-03T09:36:48.030Z,2.67
2023-05-03T09:39:22.696Z,2.50
2023-05-03T09:41:49.576Z,2.63
2023-05-03T09:44:20.999Z,2.07
2023-05-03T09:47:06.368Z,2.20
2023-05-03T09:49:37.073Z,1.90
2023-05-03T09:52:04.369Z,1.90
2023-05-03T09:54:31.483Z,1.83
2023-05-03T09:57:02.519Z,1.90
2023-05-03T09:59:29.393Z,1.80
2023-05-03T10:02:01.605Z,1.57
2023-05-03T10:04:31.247Z,1.33
2023-05-03T10:07:00.555Z,1.57
2023-05-03T10:09:39.896Z,1.93
2023-05-03T10:12:12.490Z,1.80
2023-05-03T10:14:43.243Z,1.70
2023-05-03T10:17:46.565Z,1.20
2023-05-03T10:20:30.261Z,1.13
2023-05-03T10:23:06.493Z,1.30
2023-05-03T10:25:35.153Z,2.00
2023-05-03T10:28:06.109Z,1.63
2023-05-03T10:30:34.845Z,1.87
2023-05-03T10:33:14.242Z,1.70
2023-05-03T10:35:52.399Z,2.00
2023-05-03T10:38:26.528Z,1.77
2023-05-03T10:40:55.002Z,2.13
2023-05-03T10:43:33.612Z,1.80
2023-05-03T10:46:02.755Z,1.80
2023-05-03T10:48:32.227Z,1.50
2023-05-03T10:51:29.068Z,2.00
2023-05-03T10:53:55.895Z,1.60
2023-05-03T10:56:22.790Z,1.70
2023-05-03T10:58:56.241Z,1.37
2023-05-03T11:01:23.267Z,1.60
2023-05-03T11:03:56.087Z,1.93
2023-05-03T11:06:41.373Z,2.20
2023-05-03T11:09:14.787Z,2.10
2023-05-03T11:11:42.080Z,1.87
2023-05-03T11:14:09.104Z,2.33
2023-05-03T11:16:42.420Z,1.50
2023-05-03T11:19:09.487Z,1.67
2023-05-03T11:21:38.866Z,1.70
2023-05-03T11:24:06.018Z,2.00
2023-05-03T11:26:41.174Z,1.85
2023-05-03T11:29:10.595Z,1.75
2023-05-03T11:31:37.521Z,2.00
2023-05-03T11:34:04.384Z,1.90
2023-05-03T11:36:31.664Z,2.07
2023-05-03T11:38:58.410Z,1.60
2023-05-03T11:41:25.204Z,1.87
2023-05-03T11:44:04.088Z,1.98
2023-05-03T11:46:37.422Z,2.15
2023-05-03T11:49:04.386Z,1.75
2023-05-03T11:51:31.482Z,1.67
2023-05-03T11:54:03.036Z,1.77
2023-05-03T11:56:37.323Z,2.00
2023-05-03T11:59:04.180Z,1.95
2023-05-03T12:01:31.050Z,1.90
2023-05-03T12:04:02.763Z,1.80
2023-05-03T12:06:34.187Z,2.00
2023-05-03T12:09:03.747Z,2.10
2023-05-03T12:11:33.397Z,1.70
2023-05-03T12:14:05.158Z,2.03
2023-05-03T12:16:47.329Z,1.87
2023-05-03T12:19:27.448Z,1.40
2023-05-03T12:22:09.365Z,1.30
2023-05-03T12:24:44.574Z,1.37
2023-05-03T12:27:14.579Z,1.80
2023-05-03T12:29:42.037Z,1.43
2023-05-03T12:32:11.695Z,1.40
2023-05-03T12:34:41.419Z,1.90
2023-05-03T12:37:11.817Z,1.63
2023-05-03T12:39:40.070Z,1.77
2023-05-03T12:42:09.328Z,1.60
2023-05-03T12:44:43.043Z,1.37
2023-05-03T12:47:11.043Z,1.63
2023-05-03T12:49:39.511Z,2.07
2023-05-03T12:52:35.458Z,1.60
2023-05-03T12:55:03.135Z,1.67
2023-05-03T12:57:32.460Z,1.87
2023-05-03T13:00:14.516Z,1.70
2023-05-03T13:03:21.485Z,1.63
2023-05-03T13:05:35.491Z,1.50
2023-05-03T13:08:09.058Z,1.50
2023-05-03T13:10:41.266Z,1.60
2023-05-03T13:13:09.275Z,2.20
2023-05-03T13:15:36.622Z,1.70
2023-05-03T13:18:06.694Z,1.90
2023-05-03T13:20:39.135Z,1.90
2023-05-03T13:23:05.897Z,1.90
2023-05-03T13:25:32.746Z,1.57
2023-05-03T13:28:01.774Z,1.80
2023-05-03T13:30:28.733Z,1.57
2023-05-03T13:32:55.534Z,1.40
2023-05-03T13:35:22.336Z,1.83
2023-05-03T13:37:49.140Z,1.63
2023-05-03T13:40:16.106Z,1.63
2023-05-03T13:42:42.895Z,1.67
2023-05-03T13:45:13.638Z,1.80
2023-05-03T13:48:05.217Z,1.63
2023-05-03T13:50:30.729Z,2.00
2023-05-03T13:52:57.631Z,2.20
2023-05-03T13:55:26.400Z,1.67
2023-05-03T13:57:53.112Z,1.80
2023-05-03T14:00:24.830Z,1.80
2023-05-03T14:02:52.555Z,1.87
2023-05-03T14:05:22.262Z,2.10
2023-05-03T14:07:49.232Z,2.03
2023-05-03T14:10:16.140Z,1.57
2023-05-03T14:12:44.437Z,1.70
2023-05-03T14:15:11.892Z,1.70
2023-05-03T14:17:44.547Z,1.67
2023-05-03T14:20:12.363Z,1.57
2023-05-03T14:22:39.242Z,1.73
2023-05-03T14:25:06.578Z,1.67
2023-05-03T14:27:33.338Z,1.45
2023-05-03T14:30:00.166Z,1.60
2023-05-03T14:32:29.683Z,1.70
2023-05-03T14:34:56.962Z,1.67
2023-05-03T14:37:23.789Z,1.90
2023-05-03T14:39:52.812Z,1.50
2023-05-03T14:42:19.571Z,1.53
2023-05-03T14:44:47.701Z,1.65
2023-05-03T14:47:16.922Z,1.77
2023-05-03T14:49:45.903Z,1.93
2023-05-03T14:52:12.679Z,1.50
2023-05-03T14:54:39.455Z,1.93
2023-05-03T14:57:06.723Z,2.03
2023-05-03T14:59:33.756Z,1.60
2023-05-03T15:02:03.383Z,1.90
2023-05-03T15:04:30.758Z,1.90
2023-05-03T15:07:02.697Z,1.80
2023-05-03T15:09:35.572Z,1.90
2023-05-03T15:12:05.170Z,1.90
2023-05-03T15:14:31.866Z,1.80
2023-05-03T15:16:58.707Z,1.67
2023-05-03T15:19:26.790Z,1.57
2023-05-03T15:21:58.589Z,1.77
2023-05-03T15:24:27.827Z,1.60
2023-05-03T15:26:54.559Z,2.10
2023-05-03T15:29:21.715Z,1.57
2023-05-03T15:31:48.483Z,1.93
2023-05-03T15:34:15.345Z,1.53
2023-05-03T15:36:42.175Z,1.60
2023-05-03T15:39:09.478Z,1.57
2023-05-03T15:41:36.369Z,1.40
2023-05-03T15:44:05.311Z,1.60
2023-05-03T15:46:35.002Z,1.60
2023-05-03T15:49:01.961Z,1.40
2023-05-03T15:51:29.303Z,1.50
2023-05-03T15:53:56.096Z,1.70
2023-05-03T15:56:22.862Z,1.60
2023-05-03T15:58:50.162Z,1.60
2023-05-03T16:01:18.709Z,1.47
2023-05-03T16:03:47.975Z,1.53
2023-05-03T16:06:17.789Z,1.43
2023-05-03T16:08:45.157Z,1.50
2023-05-03T16:11:12.848Z,1.93
2023-05-03T16:13:39.603Z,1.50
2023-05-03T16:16:06.720Z,1.43
2023-05-03T16:18:35.901Z,1.80
2023-05-03T16:21:04.852Z,1.50
2023-05-03T16:23:31.630Z,1.50
2023-05-03T16:25:58.420Z,1.80
2023-05-03T16:28:25.237Z,1.50
2023-05-03T16:30:52.062Z,1.93
2023-05-03T16:33:19.531Z,1.70
2023-05-03T16:35:46.387Z,1.83
2023-05-03T16:38:15.305Z,1.50
2023-05-03T16:40:44.308Z,1.37
2023-05-03T16:43:15.587Z,1.60
2023-05-03T16:45:42.461Z,1.53
2023-05-03T16:48:10.865Z,1.57
2023-05-03T16:50:38.113Z,1.40
2023-05-03T16:53:07.087Z,1.40
2023-05-03T16:55:33.835Z,1.50
2023-05-03T16:58:00.822Z,1.60
2023-05-03T17:00:28.921Z,1.93
2023-05-03T17:02:56.062Z,2.20
2023-05-03T17:05:24.108Z,2.87
2023-05-03T17:07:53.405Z,2.10
2023-05-03T17:10:20.317Z,2.07
2023-05-03T17:12:47.646Z,1.70
2023-05-03T17:15:16.995Z,3.17
2023-05-03T17:17:43.748Z,3.13
2023-05-03T17:20:13.265Z,2.23
2023-05-03T17:22:42.224Z,1.80
2023-05-03T17:25:09.815Z,1.60
2023-05-03T17:27:39.104Z,1.77
2023-05-03T17:30:09.652Z,2.03
2023-05-03T17:32:38.705Z,1.70
2023-05-03T17:35:06.077Z,1.70
2023-05-03T17:37:35.778Z,1.70
2023-05-03T17:40:03.000Z,1.67
2023-05-03T17:42:33.555Z,1.67
2023-05-03T17:45:01.520Z,1.57
2023-05-03T17:47:28.845Z,1.60
2023-05-03T17:49:55.955Z,1.87
2023-05-03T17:52:22.922Z,1.80
2023-05-03T17:54:52.418Z,1.53
2023-05-03T17:57:23.414Z,1.97
2023-05-03T17:59:51.767Z,1.90
2023-05-03T18:02:21.758Z,2.03
2023-05-03T18:04:48.591Z,1.97
2023-05-03T18:07:17.095Z,2.20
2023-05-03T18:09:46.414Z,2.10
2023-05-03T18:12:17.924Z,2.00
2023-05-03T18:14:44.685Z,2.00
2023-05-03T18:17:11.460Z,1.70
2023-05-03T18:19:38.223Z,1.70
2023-05-03T18:22:05.917Z,1.90
2023-05-03T18:24:32.830Z,1.90
2023-05-03T18:26:59.659Z,1.97
2023-05-03T18:29:27.536Z,2.00
2023-05-03T18:31:54.806Z,1.70
2023-05-03T18:34:21.673Z,1.90
2023-05-03T18:36:50.661Z,1.90
2023-05-03T18:39:17.491Z,2.03
2023-05-03T18:41:44.298Z,2.20
2023-05-03T18:44:11.108Z,1.87
2023-05-03T18:46:37.933Z,2.00
2023-05-03T18:49:06.855Z,2.27
2023-05-03T18:51:33.676Z,2.17
2023-05-03T18:54:05.952Z,2.30
2023-05-03T18:56:34.898Z,2.37
2023-05-03T18:59:01.680Z,2.60
2023-05-03T19:01:28.537Z,2.70
2023-05-03T19:03:55.473Z,2.37
2023-05-03T19:06:22.394Z,2.27
2023-05-03T19:08:49.764Z,2.50
2023-05-03T19:11:17.180Z,2.10
2023-05-03T19:13:47.437Z,2.47
2023-05-03T19:16:19.373Z,2.67
2023-05-03T19:18:46.245Z,2.80
2023-05-03T19:21:13.154Z,2.50
2023-05-03T19:23:39.942Z,2.50
2023-05-03T19:26:07.188Z,2.63
2023-05-03T19:28:36.124Z,3.13
2023-05-03T19:31:06.238Z,2.50
2023-05-03T19:33:33.037Z,2.53
2023-05-03T19:36:07.250Z,2.80
2023-05-03T19:38:36.700Z,2.73
2023-05-03T19:41:07.942Z,2.73
2023-05-03T19:43:34.780Z,2.83
2023-05-03T19:46:02.889Z,2.87
2023-05-03T19:48:29.780Z,3.20
2023-05-03T19:50:56.632Z,2.93
2023-05-03T19:53:24.076Z,2.63
2023-05-03T19:55:58.769Z,3.00
2023-05-03T19:58:25.908Z,3.17
2023-05-03T20:00:52.935Z,3.23
2023-05-03T20:03:20.654Z,3.30
2023-05-03T20:05:49.755Z,3.00
2023-05-03T20:08:16.540Z,3.30
2023-05-03T20:10:46.593Z,3.37
2023-05-03T20:13:16.168Z,3.27
2023-05-03T20:15:43.009Z,3.27
2023-05-03T20:18:09.845Z,3.63
2023-05-03T20:20:36.669Z,3.17
2023-05-03T20:23:05.652Z,3.10
2023-05-03T20:25:32.394Z,3.10
2023-05-03T20:27:59.148Z,3.13
2023-05-03T20:30:26.036Z,3.13
2023-05-03T20:32:52.935Z,3.40
2023-05-03T20:35:22.130Z,3.00
2023-05-03T20:37:49.135Z,3.43
2023-05-03T20:40:18.330Z,3.07
2023-05-03T20:42:45.333Z,3.20
2023-05-03T20:45:12.502Z,3.13
2023-05-03T20:47:39.237Z,3.50
2023-05-03T20:50:06.995Z,3.10
2023-05-03T20:52:33.829Z,3.87
2023-05-03T20:55:00.673Z,3.93
2023-05-03T20:57:28.304Z,3.60
2023-05-03T20:59:58.282Z,3.80
2023-05-03T21:02:25.136Z,3.97
2023-05-03T21:04:52.013Z,3.87
2023-05-03T21:07:23.395Z,4.00
2023-05-03T21:09:52.451Z,3.90
2023-05-03T21:12:19.297Z,4.07
2023-05-03T21:14:48.233Z,3.47
2023-05-03T21:17:17.457Z,3.90
2023-05-03T21:19:44.381Z,3.13
2023-05-03T21:22:11.769Z,3.93
2023-05-03T21:24:40.930Z,3.70
2023-05-03T21:27:10.244Z,3.90
2023-05-03T21:29:37.082Z,3.30
2023-05-03T21:32:04.464Z,3.40
2023-05-03T21:34:31.276Z,3.33
2023-05-03T21:36:58.078Z,3.70
2023-05-03T21:39:25.028Z,3.27
2023-05-03T21:41:51.805Z,3.40
2023-05-03T21:44:18.751Z,4.00
2023-05-03T21:46:45.738Z,3.63
2023-05-03T21:49:14.770Z,3.70
2023-05-03T21:51:45.017Z,3.50
2023-05-03T21:54:11.875Z,3.73
2023-05-03T21:56:43.272Z,3.90
2023-05-03T21:59:10.013Z,3.77
2023-05-03T22:01:39.349Z,4.80
2023-05-03T22:04:06.334Z,5.43
2023-05-03T22:06:33.206Z,3.83
2023-05-03T22:09:00.122Z,4.10
2023-05-03T22:11:26.959Z,4.23
2023-05-03T22:14:06.599Z,3.83
2023-05-03T22:16:37.516Z,3.67
2023-05-03T22:19:05.383Z,3.30
2023-05-03T22:21:32.625Z,3.90
2023-05-03T22:24:01.902Z,4.47
2023-05-03T22:26:29.765Z,3.80
2023-05-03T22:28:59.039Z,3.90
2023-05-03T22:31:26.742Z,3.67
2023-05-03T22:33:58.340Z,4.13
2023-05-03T22:36:27.864Z,4.90
2023-05-03T22:39:00.844Z,4.00
2023-05-03T22:41:28.123Z,4.10
2023-05-03T22:43:54.900Z,4.50
2023-05-03T22:46:21.853Z,3.70
2023-05-03T22:48:48.766Z,4.20
2023-05-03T22:51:15.754Z,4.03
2023-05-03T22:53:44.692Z,4.67
2023-05-03T22:56:11.520Z,4.00
2023-05-03T22:58:38.268Z,3.40
2023-05-03T23:01:10.518Z,4.17
2023-05-03T23:03:37.452Z,4.13
2023-05-03T23:06:04.454Z,4.00
2023-05-03T23:08:33.699Z,4.07
2023-05-03T23:11:02.749Z,4.00
2023-05-03T23:13:32.507Z,4.07
2023-05-03T23:15:59.396Z,3.70
2023-05-03T23:18:26.717Z,4.17
2023-05-03T23:20:53.697Z,4.07
2023-05-03T23:23:20.571Z,3.83
2023-05-03T23:25:47.419Z,3.93
2023-05-03T23:28:16.697Z,4.00
2023-05-03T23:30:44.553Z,4.13
2023-05-03T23:33:11.767Z,4.33
2023-05-03T23:35:42.036Z,4.23
2023-05-03T23:38:08.905Z,4.13
2023-05-03T23:40:38.156Z,4.43
2023-05-03T23:43:09.783Z,3.87
2023-05-03T23:45:38.865Z,4.47
2023-05-03T23:48:06.395Z,4.10
2023-05-03T23:50:37.642Z,4.30
2023-05-03T23:53:05.142Z,4.23
2023-05-03T23:55:31.924Z,4.77
2023-05-03T23:57:58.757Z,4.67
